createdAt,value
2019-05-19T00:00:31.326Z,99.20
2019-05-19T00:03:00.668Z,99.60
2019-05-19T00:05:30.041Z,99.80
2019-05-19T00:07:59.329Z,99.70
2019-05-19T00:10:28.696Z,99.80
2019-05-19T00:12:57.978Z,99.70
2019-05-19T00:15:27.482Z,99.80
2019-05-19T00:17:56.885Z,99.80
2019-05-19T00:20:26.170Z,99.50
2019-05-19T00:22:55.509Z,99.60
2019-05-19T00:25:24.970Z,99.60
2019-05-19T00:27:54.332Z,99.40
2019-05-19T00:30:23.754Z,99.40
2019-05-19T00:32:53.058Z,99.90
2019-05-19T00:35:22.399Z,99.80
2019-05-19T00:37:51.841Z,99.90
2019-05-19T00:40:21.150Z,99.90
2019-05-19T00:42:50.438Z,99.90
2019-05-19T00:45:20.094Z,99.90
2019-05-19T00:47:49.413Z,99.90
2019-05-19T00:50:18.690Z,99.90
2019-05-19T00:52:48.086Z,99.90
2019-05-19T00:55:17.433Z,99.90
2019-05-19T00:57:47.116Z,99.90
2019-05-19T01:00:16.918Z,99.90
2019-05-19T01:02:46.246Z,99.90
2019-05-19T01:05:15.530Z,99.90
2019-05-19T01:07:44.805Z,99.90
2019-05-19T01:10:15.014Z,99.90
2019-05-19T01:12:44.387Z,99.90
2019-05-19T01:15:13.984Z,99.90
2019-05-19T01:17:43.540Z,99.90
2019-05-19T01:20:13.337Z,99.90
2019-05-19T01:22:42.720Z,99.90
2019-05-19T01:25:13.424Z,99.90
2019-05-19T01:27:42.859Z,99.90
2019-05-19T01:30:12.853Z,99.90
2019-05-19T01:32:42.143Z,99.90
2019-05-19T01:35:11.621Z,99.90
2019-05-19T01:37:41.062Z,99.90
2019-05-19T01:40:11.302Z,99.90
2019-05-19T01:42:40.590Z,99.90
2019-05-19T01:45:10.877Z,99.90
2019-05-19T01:47:40.201Z,99.90
2019-05-19T01:50:18.525Z,99.90
2019-05-19T01:52:42.345Z,99.90
2019-05-19T01:55:12.727Z,99.90
2019-05-19T01:57:42.067Z,99.90
2019-05-19T02:00:11.573Z,99.90
2019-05-19T02:02:40.866Z,99.90
2019-05-19T02:05:10.135Z,99.90
2019-05-19T02:07:39.519Z,99.90
2019-05-19T02:10:09.297Z,99.90
2019-05-19T02:12:38.718Z,99.90
2019-05-19T02:15:08.509Z,99.90
2019-05-19T02:17:37.823Z,99.90
2019-05-19T02:20:07.548Z,99.90
2019-05-19T02:22:36.829Z,99.90
2019-05-19T02:25:06.583Z,99.90
2019-05-19T02:27:35.933Z,99.90
2019-05-19T02:30:05.818Z,99.90
2019-05-19T02:32:35.191Z,99.90
2019-05-19T02:35:04.835Z,99.90
2019-05-19T02:37:34.117Z,99.90
2019-05-19T02:40:03.458Z,99.90
2019-05-19T02:42:35.362Z,99.90
2019-05-19T02:45:05.010Z,99.90
2019-05-19T02:47:35.514Z,99.90
2019-05-19T02:50:05.547Z,99.90
2019-05-19T02:52:35.619Z,99.90
2019-05-19T02:55:05.889Z,99.90
2019-05-19T02:57:36.815Z,99.90
2019-05-19T03:00:07.653Z,99.90
2019-05-19T03:02:36.924Z,99.90
2019-05-19T03:05:06.756Z,99.90
2019-05-19T03:07:36.142Z,99.90
2019-05-19T03:10:06.353Z,99.90
2019-05-19T03:12:35.754Z,99.90
2019-05-19T03:15:05.579Z,99.90
2019-05-19T03:17:34.919Z,99.90
2019-05-19T03:20:04.237Z,99.90
2019-05-19T03:22:33.599Z,99.90
2019-05-19T03:25:02.874Z,99.90
2019-05-19T03:27:32.231Z,99.90
2019-05-19T03:30:20.554Z,99.90
2019-05-19T03:32:56.808Z,99.90
2019-05-19T03:35:26.174Z,99.90
2019-05-19T03:37:55.542Z,99.90
2019-05-19T03:40:24.862Z,99.90
2019-05-19T03:42:54.225Z,99.90
2019-05-19T03:45:23.576Z,99.90
2019-05-19T03:47:52.873Z,99.90
2019-05-19T03:50:22.228Z,99.90
2019-05-19T03:52:51.518Z,99.90
2019-05-19T03:55:20.838Z,99.90
2019-05-19T03:57:50.207Z,99.90
2019-05-19T04:00:20.170Z,99.90
2019-05-19T04:02:49.487Z,99.90
2019-05-19T04:05:18.823Z,99.90
2019-05-19T04:07:48.114Z,99.90
2019-05-19T04:10:18.336Z,99.90
2019-05-19T04:12:47.600Z,99.90
2019-05-19T04:15:17.086Z,99.90
2019-05-19T04:17:46.369Z,99.90
2019-05-19T04:20:15.747Z,99.90
2019-05-19T04:22:45.043Z,99.90
2019-05-19T04:25:14.422Z,99.90
2019-05-19T04:27:43.926Z,99.90
2019-05-19T04:30:13.331Z,99.90
2019-05-19T04:32:42.613Z,99.90
2019-05-19T04:35:12.102Z,99.90
2019-05-19T04:37:41.465Z,99.90
2019-05-19T04:40:11.421Z,99.90
2019-05-19T04:42:40.769Z,99.90
2019-05-19T04:45:10.248Z,99.90
2019-05-19T04:47:39.594Z,99.90
2019-05-19T04:50:09.065Z,99.90
2019-05-19T04:52:38.531Z,99.90
2019-05-19T04:55:08.115Z,99.90
2019-05-19T04:57:37.819Z,99.90
2019-05-19T05:00:07.481Z,99.90
2019-05-19T05:02:36.792Z,99.90
2019-05-19T05:05:06.538Z,99.90
2019-05-19T05:07:35.846Z,99.90
2019-05-19T05:10:05.447Z,99.90
2019-05-19T05:12:34.747Z,99.90
2019-05-19T05:15:04.169Z,99.90
2019-05-19T05:17:33.532Z,99.90
2019-05-19T05:20:02.879Z,99.90
2019-05-19T05:22:32.166Z,99.90
2019-05-19T05:25:01.483Z,99.90
2019-05-19T05:27:30.830Z,99.90
2019-05-19T05:30:00.118Z,99.90
2019-05-19T05:32:29.454Z,99.90
2019-05-19T05:34:58.737Z,99.90
2019-05-19T05:37:28.015Z,99.90
2019-05-19T05:39:57.325Z,99.90
2019-05-19T05:42:26.602Z,99.90
2019-05-19T05:44:55.895Z,99.90
2019-05-19T05:47:25.249Z,99.90
2019-05-19T05:49:54.558Z,99.90
2019-05-19T05:52:37.474Z,99.90
2019-05-19T05:54:54.914Z,99.90
2019-05-19T05:57:24.272Z,99.90
2019-05-19T05:59:53.602Z,99.90
2019-05-19T06:02:22.953Z,99.90
2019-05-19T06:04:52.291Z,99.90
2019-05-19T06:07:21.660Z,99.90
2019-05-19T06:09:51.109Z,99.90
2019-05-19T06:12:20.437Z,99.90
2019-05-19T06:14:49.755Z,99.90
2019-05-19T06:17:19.048Z,99.90
2019-05-19T06:19:48.338Z,99.90
2019-05-19T06:22:17.704Z,99.90
2019-05-19T06:24:47.503Z,99.90
2019-05-19T06:27:16.833Z,99.90
2019-05-19T06:29:46.189Z,99.90
2019-05-19T06:32:27.983Z,99.90
2019-05-19T06:34:57.265Z,99.90
2019-05-19T06:37:26.563Z,99.90
2019-05-19T06:39:55.923Z,99.50
2019-05-19T06:42:25.238Z,98.40
2019-05-19T06:44:54.509Z,98.90
2019-05-19T06:47:23.922Z,98.80
2019-05-19T06:49:53.252Z,98.70
2019-05-19T06:52:22.604Z,98.10
2019-05-19T06:54:51.982Z,98.10
2019-05-19T06:57:21.299Z,98.40
2019-05-19T06:59:50.586Z,98.00
2019-05-19T07:02:20.176Z,97.90
2019-05-19T07:04:49.512Z,97.50
2019-05-19T07:07:18.786Z,97.20
2019-05-19T07:09:57.874Z,97.10
2019-05-19T07:12:19.098Z,96.70
2019-05-19T07:14:48.385Z,96.80
2019-05-19T07:17:19.306Z,96.90
2019-05-19T07:19:48.586Z,97.20
2019-05-19T07:22:17.873Z,97.60
2019-05-19T07:24:47.305Z,97.50
2019-05-19T07:27:16.585Z,97.30
2019-05-19T07:29:46.057Z,97.30
2019-05-19T07:32:15.401Z,97.40
2019-05-19T07:34:44.755Z,97.50
2019-05-19T07:37:14.062Z,97.60
2019-05-19T07:39:43.486Z,96.80
2019-05-19T07:42:12.794Z,97.10
2019-05-19T07:44:45.205Z,97.40
2019-05-19T07:47:13.175Z,97.30
2019-05-19T07:49:42.583Z,96.90
2019-05-19T07:52:11.921Z,96.50
2019-05-19T07:54:41.231Z,96.50
2019-05-19T07:57:10.508Z,96.80
2019-05-19T07:59:39.783Z,96.70
2019-05-19T08:02:09.129Z,96.40
2019-05-19T08:04:38.489Z,96.30
2019-05-19T08:07:07.803Z,96.50
2019-05-19T08:09:37.179Z,96.40
2019-05-19T08:12:06.542Z,96.50
2019-05-19T08:14:35.827Z,96.00
2019-05-19T08:17:05.234Z,95.80
2019-05-19T08:19:34.552Z,95.30
2019-05-19T08:22:03.829Z,95.20
2019-05-19T08:24:33.185Z,94.60
2019-05-19T08:27:02.510Z,94.90
2019-05-19T08:29:31.852Z,95.10
2019-05-19T08:32:01.246Z,95.20
2019-05-19T08:34:30.537Z,95.20
2019-05-19T08:36:59.814Z,95.50
2019-05-19T08:39:29.175Z,95.20
2019-05-19T08:41:58.483Z,95.40
2019-05-19T08:44:27.793Z,95.10
2019-05-19T08:46:57.071Z,95.30
2019-05-19T08:49:26.437Z,95.50
2019-05-19T08:51:55.801Z,95.20
2019-05-19T08:54:25.163Z,95.20
2019-05-19T08:56:54.457Z,95.20
2019-05-19T08:59:23.745Z,95.10
2019-05-19T09:01:53.054Z,94.80
2019-05-19T09:04:22.390Z,94.40
2019-05-19T09:06:52.074Z,94.30
2019-05-19T09:09:21.346Z,94.20
2019-05-19T09:11:50.678Z,93.80
2019-05-19T09:14:19.969Z,94.00
2019-05-19T09:16:49.276Z,93.60
2019-05-19T09:19:18.785Z,93.70
2019-05-19T09:21:48.135Z,93.00
2019-05-19T09:24:29.499Z,92.20
2019-05-19T09:26:48.504Z,92.60
2019-05-19T09:29:17.865Z,92.40
2019-05-19T09:31:47.154Z,91.80
2019-05-19T09:34:16.488Z,92.00
2019-05-19T09:36:45.766Z,91.60
2019-05-19T09:39:15.106Z,91.70
2019-05-19T09:41:44.513Z,91.30
2019-05-19T09:44:13.786Z,91.50
2019-05-19T09:46:43.050Z,92.10
2019-05-19T09:49:30.224Z,91.90
2019-05-19T09:51:59.717Z,91.80
2019-05-19T09:54:29.377Z,92.50
2019-05-19T09:56:58.719Z,90.30
2019-05-19T09:59:28.425Z,90.00
2019-05-19T10:01:57.700Z,90.50
2019-05-19T10:04:27.062Z,90.60
2019-05-19T10:06:56.495Z,90.50
2019-05-19T10:09:57.601Z,90.30
2019-05-19T10:12:27.041Z,88.50
2019-05-19T10:14:56.421Z,86.00
2019-05-19T10:17:25.714Z,86.80
2019-05-19T10:19:55.013Z,86.10
2019-05-19T10:22:24.402Z,86.60
2019-05-19T10:25:09.871Z,87.20
2019-05-19T10:27:24.759Z,87.80
2019-05-19T10:29:56.202Z,87.80
2019-05-19T10:32:25.494Z,86.50
2019-05-19T10:34:54.837Z,88.50
2019-05-19T10:37:24.129Z,82.80
2019-05-19T10:39:53.517Z,82.70
2019-05-19T10:42:22.836Z,81.50
2019-05-19T10:44:52.316Z,83.70
2019-05-19T10:47:21.709Z,81.10
2019-05-19T10:49:51.081Z,79.80
2019-05-19T10:52:20.538Z,80.90
2019-05-19T10:54:49.946Z,83.00
2019-05-19T10:57:19.345Z,79.10
2019-05-19T10:59:48.702Z,75.20
2019-05-19T11:02:18.029Z,75.90
2019-05-19T11:04:47.345Z,73.50
2019-05-19T11:07:16.741Z,75.80
2019-05-19T11:09:46.016Z,76.30
2019-05-19T11:12:15.414Z,76.60
2019-05-19T11:14:44.690Z,76.00
2019-05-19T11:17:13.967Z,76.40
2019-05-19T11:19:43.367Z,76.70
2019-05-19T11:22:12.719Z,77.20
2019-05-19T11:24:42.133Z,74.90
2019-05-19T11:27:11.689Z,76.30
2019-05-19T11:29:40.961Z,74.30
2019-05-19T11:32:10.278Z,72.70
2019-05-19T11:34:39.569Z,75.40
2019-05-19T11:37:08.875Z,75.40
2019-05-19T11:39:38.515Z,73.30
2019-05-19T11:42:07.915Z,73.80
2019-05-19T11:44:37.241Z,74.80
2019-05-19T11:47:06.541Z,72.80
2019-05-19T11:49:35.912Z,72.10
2019-05-19T11:52:05.263Z,70.30
2019-05-19T11:54:34.650Z,70.60
2019-05-19T11:57:03.963Z,68.10
2019-05-19T11:59:33.340Z,69.00
2019-05-19T12:02:02.626Z,70.70
2019-05-19T12:04:31.909Z,71.20
2019-05-19T12:07:01.246Z,68.20
2019-05-19T12:09:30.610Z,67.40
2019-05-19T12:11:59.982Z,68.00
2019-05-19T12:14:29.287Z,67.20
2019-05-19T12:16:58.873Z,67.20
2019-05-19T12:19:28.407Z,67.20
2019-05-19T12:21:57.704Z,68.00
2019-05-19T12:24:27.014Z,67.50
2019-05-19T12:26:56.289Z,68.00
2019-05-19T12:29:25.606Z,66.90
2019-05-19T12:31:54.881Z,66.90
2019-05-19T12:34:24.279Z,64.90
2019-05-19T12:36:53.932Z,66.00
2019-05-19T12:39:23.559Z,66.60
2019-05-19T12:41:52.955Z,64.60
2019-05-19T12:44:22.382Z,63.90
2019-05-19T12:46:51.665Z,63.90
2019-05-19T12:49:20.935Z,63.60
2019-05-19T12:51:50.306Z,64.00
2019-05-19T12:54:19.668Z,62.90
2019-05-19T12:56:48.970Z,61.30
2019-05-19T12:59:18.346Z,61.90
2019-05-19T13:01:47.640Z,61.10
2019-05-19T13:04:17.094Z,62.40
2019-05-19T13:06:46.384Z,63.00
2019-05-19T13:09:15.774Z,61.80
2019-05-19T13:11:45.055Z,62.10
2019-05-19T13:14:14.362Z,61.80
2019-05-19T13:16:43.658Z,62.40
2019-05-19T13:19:12.938Z,65.40
2019-05-19T13:21:42.238Z,63.60
2019-05-19T13:24:11.604Z,61.90
2019-05-19T13:26:55.611Z,62.60
2019-05-19T13:29:11.951Z,62.20
2019-05-19T13:31:41.220Z,60.70
2019-05-19T13:34:10.521Z,59.90
2019-05-19T13:36:40.501Z,59.40
2019-05-19T13:39:09.934Z,57.90
2019-05-19T13:41:39.225Z,60.10
2019-05-19T13:44:08.533Z,60.60
2019-05-19T13:46:37.840Z,59.00
2019-05-19T13:49:07.193Z,61.80
2019-05-19T13:51:36.552Z,60.00
2019-05-19T13:54:24.894Z,58.40
2019-05-19T13:56:54.198Z,59.60
2019-05-19T13:59:23.489Z,59.50
2019-05-19T14:01:52.781Z,59.20
2019-05-19T14:04:22.117Z,60.80
2019-05-19T14:06:51.510Z,59.90
2019-05-19T14:09:20.829Z,63.60
2019-05-19T14:11:50.238Z,62.60
2019-05-19T14:14:19.509Z,63.90
2019-05-19T14:16:48.797Z,64.30
2019-05-19T14:19:18.282Z,64.10
2019-05-19T14:21:47.567Z,62.30
2019-05-19T14:24:16.913Z,60.00
2019-05-19T14:26:46.250Z,60.80
2019-05-19T14:29:15.530Z,60.40
2019-05-19T14:31:44.839Z,59.90
2019-05-19T14:34:14.181Z,60.60
2019-05-19T14:36:43.529Z,61.80
2019-05-19T14:39:12.830Z,60.80
2019-05-19T14:41:46.918Z,60.40
2019-05-19T14:44:35.303Z,60.70
2019-05-19T14:47:04.596Z,60.50
2019-05-19T14:49:33.942Z,60.90
2019-05-19T14:52:03.297Z,61.40
2019-05-19T14:54:32.624Z,61.50
2019-05-19T14:57:01.975Z,60.00
2019-05-19T14:59:31.322Z,60.80
2019-05-19T15:02:00.643Z,61.50
2019-05-19T15:04:29.938Z,61.00
2019-05-19T15:06:59.210Z,61.30
2019-05-19T15:09:28.517Z,59.70
2019-05-19T15:11:57.798Z,59.20
2019-05-19T15:14:27.096Z,58.90
2019-05-19T15:16:56.482Z,59.10
2019-05-19T15:19:25.855Z,59.20
2019-05-19T15:21:55.174Z,60.30
2019-05-19T15:24:24.500Z,60.20
2019-05-19T15:26:53.846Z,60.60
2019-05-19T15:29:23.233Z,59.40
2019-05-19T15:31:52.513Z,60.60
2019-05-19T15:34:21.801Z,60.20
2019-05-19T15:36:51.105Z,61.40
2019-05-19T15:39:20.393Z,61.40
2019-05-19T15:41:49.762Z,63.00
2019-05-19T15:44:19.083Z,63.40
2019-05-19T15:46:48.518Z,63.40
2019-05-19T15:49:17.838Z,62.80
2019-05-19T15:52:00.940Z,63.80
2019-05-19T15:54:18.140Z,64.70
2019-05-19T15:56:47.588Z,64.80
2019-05-19T15:59:16.876Z,65.50
2019-05-19T16:01:46.230Z,63.90
2019-05-19T16:04:15.814Z,64.70
2019-05-19T16:06:45.099Z,64.80
2019-05-19T16:09:14.480Z,64.10
2019-05-19T16:11:43.807Z,63.50
2019-05-19T16:14:13.142Z,62.10
2019-05-19T16:16:42.442Z,62.80
2019-05-19T16:19:11.812Z,61.80
2019-05-19T16:21:41.168Z,61.00
2019-05-19T16:24:10.522Z,60.80
2019-05-19T16:26:39.878Z,60.60
2019-05-19T16:29:09.225Z,60.90
2019-05-19T16:31:38.517Z,60.30
2019-05-19T16:34:07.846Z,60.40
2019-05-19T16:36:37.119Z,59.00
2019-05-19T16:39:07.439Z,59.10
2019-05-19T16:41:36.790Z,58.80
2019-05-19T16:44:06.177Z,59.60
2019-05-19T16:46:35.478Z,59.40
2019-05-19T16:49:04.853Z,60.20
2019-05-19T16:51:34.140Z,61.90
2019-05-19T16:54:07.245Z,64.30
2019-05-19T16:56:36.556Z,64.70
2019-05-19T16:59:05.873Z,66.00
2019-05-19T17:01:35.184Z,67.40
2019-05-19T17:04:04.537Z,68.60
2019-05-19T17:06:34.085Z,70.20
2019-05-19T17:09:03.659Z,72.80
2019-05-19T17:11:33.013Z,72.20
2019-05-19T17:14:02.767Z,72.60
2019-05-19T17:16:32.082Z,73.40
2019-05-19T17:19:01.505Z,72.80
2019-05-19T17:21:30.966Z,73.90
2019-05-19T17:24:00.331Z,74.20
2019-05-19T17:26:29.754Z,74.10
2019-05-19T17:29:00.970Z,75.20
2019-05-19T17:31:30.246Z,75.40
2019-05-19T17:33:59.528Z,76.80
2019-05-19T17:36:28.874Z,75.70
2019-05-19T17:38:58.174Z,75.20
2019-05-19T17:41:27.488Z,75.60
2019-05-19T17:43:56.797Z,76.30
2019-05-19T17:46:26.163Z,76.50
2019-05-19T17:48:56.251Z,77.10
2019-05-19T17:51:25.571Z,76.80
2019-05-19T17:53:54.846Z,77.80
2019-05-19T17:56:25.018Z,77.80
2019-05-19T17:58:54.634Z,78.50
2019-05-19T18:01:23.960Z,78.60
2019-05-19T18:03:53.309Z,79.40
2019-05-19T18:06:22.688Z,79.80
2019-05-19T18:08:51.958Z,80.70
2019-05-19T18:11:21.225Z,80.70
2019-05-19T18:13:50.554Z,81.20
2019-05-19T18:16:23.215Z,81.70
2019-05-19T18:18:52.584Z,82.50
2019-05-19T18:21:21.891Z,82.70
2019-05-19T18:23:51.154Z,82.70
2019-05-19T18:26:20.426Z,82.90
2019-05-19T18:28:49.702Z,82.80
2019-05-19T18:31:19.175Z,83.30
2019-05-19T18:33:48.513Z,83.50
2019-05-19T18:36:17.825Z,83.60
2019-05-19T18:38:47.105Z,84.10
2019-05-19T18:41:16.514Z,83.60
2019-05-19T18:43:48.111Z,83.80
2019-05-19T18:46:17.401Z,83.90
2019-05-19T18:48:46.675Z,83.90
2019-05-19T18:51:16.000Z,83.30
2019-05-19T18:53:45.305Z,83.70
2019-05-19T18:56:14.649Z,83.20
2019-05-19T18:58:43.933Z,84.00
2019-05-19T19:01:13.330Z,83.30
2019-05-19T19:03:42.972Z,82.90
2019-05-19T19:06:12.234Z,84.40
2019-05-19T19:08:41.738Z,84.30
2019-05-19T19:11:11.010Z,83.70
2019-05-19T19:13:40.290Z,84.20
2019-05-19T19:16:09.871Z,83.90
2019-05-19T19:18:40.366Z,84.10
2019-05-19T19:21:09.846Z,84.40
2019-05-19T19:23:39.174Z,85.00
2019-05-19T19:26:08.466Z,84.80
2019-05-19T19:28:37.861Z,85.60
2019-05-19T19:31:07.226Z,86.30
2019-05-19T19:33:36.579Z,86.40
2019-05-19T19:36:06.131Z,87.10
2019-05-19T19:38:35.506Z,87.30
2019-05-19T19:41:04.977Z,88.00
2019-05-19T19:43:34.284Z,88.70
2019-05-19T19:46:03.605Z,89.60
2019-05-19T19:48:33.085Z,90.00
2019-05-19T19:51:02.372Z,90.30
2019-05-19T19:53:31.684Z,90.50
2019-05-19T19:56:00.973Z,91.10
2019-05-19T19:58:30.245Z,90.50
2019-05-19T20:00:59.574Z,90.60
2019-05-19T20:03:29.043Z,90.80
2019-05-19T20:05:58.395Z,91.40
2019-05-19T20:08:27.679Z,91.30
2019-05-19T20:10:57.098Z,90.90
2019-05-19T20:13:26.422Z,91.40
2019-05-19T20:15:55.931Z,92.00
2019-05-19T20:18:25.281Z,92.00
2019-05-19T20:20:54.549Z,92.00
2019-05-19T20:23:23.865Z,92.00
2019-05-19T20:25:53.411Z,92.10
2019-05-19T20:28:22.748Z,92.30
2019-05-19T20:30:52.101Z,92.50
2019-05-19T20:33:22.120Z,92.80
2019-05-19T20:35:51.678Z,93.00
2019-05-19T20:38:20.998Z,93.40
2019-05-19T20:40:50.282Z,93.70
2019-05-19T20:43:19.572Z,94.10
2019-05-19T20:45:49.095Z,94.40
2019-05-19T20:48:18.382Z,94.80
2019-05-19T20:50:47.669Z,95.10
2019-05-19T20:53:16.995Z,95.60
2019-05-19T20:55:46.320Z,95.80
2019-05-19T20:58:15.598Z,96.30
2019-05-19T21:00:50.683Z,96.80
2019-05-19T21:03:15.942Z,97.00
2019-05-19T21:05:45.338Z,97.10
2019-05-19T21:08:14.718Z,97.50
2019-05-19T21:10:44.027Z,97.70
2019-05-19T21:13:13.670Z,98.30
2019-05-19T21:15:43.222Z,98.60
2019-05-19T21:18:12.502Z,98.60
2019-05-19T21:20:41.803Z,99.00
2019-05-19T21:23:11.336Z,99.10
2019-05-19T21:25:40.681Z,99.30
2019-05-19T21:28:11.008Z,99.40
2019-05-19T21:30:40.327Z,99.50
2019-05-19T21:33:09.694Z,99.90
2019-05-19T21:35:39.001Z,99.90
2019-05-19T21:38:08.357Z,99.90
2019-05-19T21:40:37.737Z,99.90
2019-05-19T21:43:07.031Z,99.90
2019-05-19T21:45:36.363Z,99.90
2019-05-19T21:48:05.677Z,99.90
2019-05-19T21:50:34.969Z,99.90
2019-05-19T21:53:06.464Z,99.90
2019-05-19T21:55:35.291Z,99.90
2019-05-19T21:58:04.687Z,99.90
2019-05-19T22:00:34.731Z,99.90
2019-05-19T22:03:04.106Z,99.90
2019-05-19T22:05:33.407Z,99.90
2019-05-19T22:08:06.842Z,99.90
2019-05-19T22:10:36.129Z,99.90
2019-05-19T22:13:05.424Z,99.90
2019-05-19T22:15:34.750Z,99.90
2019-05-19T22:18:04.111Z,99.90
2019-05-19T22:20:33.390Z,99.90
2019-05-19T22:23:02.738Z,99.90
2019-05-19T22:25:32.082Z,99.90
2019-05-19T22:28:01.456Z,99.90
2019-05-19T22:30:30.790Z,99.90
2019-05-19T22:33:00.135Z,99.90
2019-05-19T22:35:29.497Z,99.90
2019-05-19T22:37:59.071Z,99.90
2019-05-19T22:40:28.354Z,99.90
2019-05-19T22:42:57.650Z,99.90
2019-05-19T22:45:27.022Z,99.90
2019-05-19T22:47:56.343Z,99.90
2019-05-19T22:50:25.647Z,99.90
2019-05-19T22:52:55.034Z,99.90
2019-05-19T22:55:24.318Z,99.90
2019-05-19T22:57:53.586Z,99.90
2019-05-19T23:00:22.997Z,99.90
2019-05-19T23:02:52.277Z,99.90
2019-05-19T23:05:21.954Z,99.90
2019-05-19T23:07:51.319Z,99.90
2019-05-19T23:10:20.858Z,99.90
2019-05-19T23:12:50.154Z,99.90
2019-05-19T23:15:22.099Z,99.90
2019-05-19T23:17:51.381Z,99.90
2019-05-19T23:20:20.664Z,99.90
2019-05-19T23:22:50.043Z,99.90
2019-05-19T23:25:19.362Z,99.90
2019-05-19T23:27:48.740Z,99.90
2019-05-19T23:30:18.206Z,99.90
2019-05-19T23:32:47.494Z,99.90
2019-05-19T23:35:16.774Z,99.90
2019-05-19T23:37:46.123Z,99.90
2019-05-19T23:40:15.498Z,99.90
2019-05-19T23:42:44.785Z,99.90
2019-05-19T23:45:14.385Z,99.90
2019-05-19T23:47:43.702Z,99.90
2019-05-19T23:50:13.286Z,99.90
2019-05-19T23:52:42.624Z,99.90
2019-05-19T23:55:12.311Z,99.90
2019-05-19T23:57:41.594Z,99.90
